createdAt,value
2019-05-11T00:03:12.782Z,5.78
2019-05-11T00:08:18.221Z,5.40
2019-05-11T00:13:23.696Z,5.85
2019-05-11T00:18:29.006Z,5.90
2019-05-11T00:23:34.263Z,5.80
2019-05-11T00:28:39.588Z,5.85
2019-05-11T00:33:45.277Z,6.00
2019-05-11T00:38:51.498Z,6.17
2019-05-11T00:43:57.057Z,6.40
2019-05-11T00:49:02.690Z,5.53
2019-05-11T00:54:08.019Z,6.20
2019-05-11T00:59:21.536Z,6.42
2019-05-11T01:04:20.293Z,6.87
2019-05-11T01:09:25.652Z,7.35
2019-05-11T01:14:31.233Z,5.92
2019-05-11T01:19:36.862Z,6.28
2019-05-11T01:24:42.392Z,6.12
2019-05-11T01:29:47.693Z,6.70
2019-05-11T01:34:53.614Z,6.90
2019-05-11T01:39:58.914Z,6.85
2019-05-11T01:45:04.834Z,7.42
2019-05-11T01:50:10.238Z,7.12
2019-05-11T01:55:16.136Z,7.10
2019-05-11T02:00:21.341Z,7.30
2019-05-11T02:05:29.916Z,7.67
2019-05-11T02:10:35.135Z,8.87
2019-05-11T02:15:40.394Z,8.33
2019-05-11T02:20:46.090Z,9.00
2019-05-11T02:25:51.401Z,8.05
2019-05-11T02:30:56.922Z,7.73
2019-05-11T02:36:02.609Z,7.00
2019-05-11T02:41:07.967Z,7.50
2019-05-11T02:46:13.752Z,8.00
2019-05-11T02:51:21.720Z,8.63
2019-05-11T02:56:27.109Z,9.00
2019-05-11T03:01:32.455Z,9.55
2019-05-11T03:06:37.905Z,9.63
2019-05-11T03:11:55.186Z,9.68
2019-05-11T03:16:52.347Z,9.15
2019-05-11T03:21:57.948Z,10.03
2019-05-11T03:27:03.443Z,11.17
2019-05-11T03:32:08.686Z,11.53
2019-05-11T03:37:14.301Z,11.63
2019-05-11T03:42:19.951Z,11.70
2019-05-11T03:47:25.191Z,11.33
2019-05-11T03:52:30.759Z,10.80
2019-05-11T03:57:36.102Z,10.95
2019-05-11T04:02:41.373Z,9.70
2019-05-11T04:07:46.945Z,8.38
2019-05-11T04:12:52.159Z,8.48
2019-05-11T04:17:57.760Z,7.40
2019-05-11T04:23:02.990Z,6.85
2019-05-11T04:28:08.213Z,5.73
2019-05-11T04:33:13.446Z,4.42
2019-05-11T04:38:18.680Z,4.25
2019-05-11T04:43:23.893Z,4.00
2019-05-11T04:48:30.520Z,3.70
2019-05-11T04:53:35.755Z,3.75
2019-05-11T04:58:41.300Z,3.52
2019-05-11T05:03:47.639Z,3.75
2019-05-11T05:08:58.299Z,3.70
2019-05-11T05:14:01.854Z,3.62
2019-05-11T05:19:07.739Z,3.90
2019-05-11T05:24:12.958Z,3.60
2019-05-11T05:29:18.205Z,3.83
2019-05-11T05:34:24.072Z,3.95
2019-05-11T05:39:29.298Z,3.90
2019-05-11T05:44:34.886Z,3.67
2019-05-11T05:49:40.134Z,3.20
2019-05-11T05:54:45.702Z,2.90
2019-05-11T05:59:51.365Z,2.65
2019-05-11T06:04:56.585Z,2.95
2019-05-11T06:10:01.880Z,2.80
2019-05-11T06:15:07.368Z,2.90
2019-05-11T06:20:13.056Z,2.90
2019-05-11T06:25:19.038Z,2.90
2019-05-11T06:30:24.412Z,2.97
2019-05-11T06:35:29.756Z,2.80
2019-05-11T06:40:34.979Z,4.93
2019-05-11T06:45:40.291Z,3.52
2019-05-11T06:50:45.537Z,4.08
2019-05-11T06:55:50.801Z,3.30
2019-05-11T07:00:56.144Z,3.37
2019-05-11T07:06:01.374Z,2.80
2019-05-11T07:11:06.653Z,3.05
2019-05-11T07:16:11.902Z,3.60
2019-05-11T07:21:17.238Z,4.03
2019-05-11T07:26:22.430Z,3.65
2019-05-11T07:31:27.675Z,3.45
2019-05-11T07:36:32.909Z,2.55
2019-05-11T07:41:38.802Z,2.00
2019-05-11T07:46:44.510Z,2.10
2019-05-11T07:51:50.260Z,2.17
2019-05-11T07:56:55.546Z,2.00
2019-05-11T08:02:00.837Z,2.05
2019-05-11T08:07:07.703Z,1.80
2019-05-11T08:12:14.209Z,2.00
2019-05-11T08:17:19.518Z,1.80
2019-05-11T08:22:28.278Z,1.60
2019-05-11T08:27:33.076Z,7.42
2019-05-11T08:32:38.752Z,1.85
2019-05-11T08:37:44.016Z,1.70
2019-05-11T08:42:49.346Z,1.60
2019-05-11T08:47:57.745Z,1.52
2019-05-11T08:53:03.675Z,1.42
2019-05-11T08:58:09.232Z,1.40
2019-05-11T09:03:14.548Z,1.30
2019-05-11T09:08:20.893Z,3.67
2019-05-11T09:13:28.038Z,1.62
2019-05-11T09:18:33.598Z,1.00
2019-05-11T09:23:40.797Z,1.20
2019-05-11T09:28:47.565Z,1.02
2019-05-11T09:33:54.092Z,1.10
2019-05-11T09:38:59.941Z,1.17
2019-05-11T09:44:08.932Z,1.10
2019-05-11T09:49:18.537Z,1.02
2019-05-11T09:54:23.964Z,1.20
2019-05-11T09:59:29.193Z,1.33
2019-05-11T10:04:34.677Z,1.20
2019-05-11T10:09:40.292Z,1.30
2019-05-11T10:14:45.515Z,1.92
2019-05-11T10:19:51.729Z,2.60
2019-05-11T10:24:58.286Z,1.30
2019-05-11T10:30:03.784Z,1.40
2019-05-11T10:35:09.447Z,1.30
2019-05-11T10:40:15.021Z,1.60
2019-05-11T10:45:20.332Z,1.60
2019-05-11T10:50:28.608Z,1.50
2019-05-11T10:55:33.748Z,1.70
2019-05-11T11:00:39.103Z,1.60
2019-05-11T11:05:45.238Z,1.72
2019-05-11T11:10:50.562Z,1.52
2019-05-11T11:15:58.172Z,1.40
2019-05-11T11:21:02.741Z,1.40
2019-05-11T11:26:08.347Z,1.30
2019-05-11T11:31:13.693Z,1.30
2019-05-11T11:36:18.972Z,1.37
2019-05-11T11:41:24.268Z,1.20
2019-05-11T11:46:29.527Z,1.60
2019-05-11T11:51:34.766Z,1.47
2019-05-11T11:56:41.482Z,1.50
2019-05-11T12:01:48.795Z,1.60
2019-05-11T12:06:53.641Z,1.70
2019-05-11T12:11:58.973Z,1.90
2019-05-11T12:17:08.655Z,1.60
2019-05-11T12:22:13.577Z,1.70
2019-05-11T12:27:18.807Z,3.33
2019-05-11T12:32:30.889Z,3.73
2019-05-11T12:37:37.723Z,4.40
2019-05-11T12:42:43.369Z,5.00
2019-05-11T12:47:48.821Z,3.42
2019-05-11T12:52:56.092Z,4.60
2019-05-11T12:58:01.073Z,5.67
2019-05-11T13:03:08.033Z,8.30
2019-05-11T13:08:13.631Z,6.05
2019-05-11T13:13:19.292Z,3.70
2019-05-11T13:18:24.669Z,3.80
2019-05-11T13:23:29.976Z,4.10
2019-05-11T13:28:37.640Z,4.20
2019-05-11T13:33:42.325Z,4.10
2019-05-11T13:38:48.773Z,4.73
2019-05-11T13:43:54.016Z,11.78
2019-05-11T13:48:59.409Z,5.08
2019-05-11T13:54:07.748Z,5.60
2019-05-11T13:59:12.477Z,5.92
2019-05-11T14:04:18.427Z,6.58
2019-05-11T14:09:25.638Z,6.20
2019-05-11T14:14:31.089Z,7.03
2019-05-11T14:19:38.595Z,7.27
2019-05-11T14:24:44.163Z,8.28
2019-05-11T14:29:49.409Z,8.70
2019-05-11T14:34:54.899Z,10.70
2019-05-11T14:40:00.408Z,9.98
2019-05-11T14:45:08.243Z,13.20
2019-05-11T14:50:13.875Z,15.00
2019-05-11T14:55:20.340Z,16.50
2019-05-11T15:00:28.798Z,17.75
2019-05-11T15:05:34.744Z,18.73
2019-05-11T15:10:40.208Z,17.27
2019-05-11T15:15:48.545Z,18.40
2019-05-11T15:20:53.490Z,16.95
2019-05-11T15:25:59.324Z,19.23
2019-05-11T15:31:04.803Z,19.07
2019-05-11T15:36:10.123Z,18.10
2019-05-11T15:41:17.489Z,17.37
2019-05-11T15:46:22.320Z,17.05
2019-05-11T15:51:29.114Z,17.23
2019-05-11T15:56:34.438Z,16.60
2019-05-11T16:01:41.170Z,14.83
2019-05-11T16:06:46.578Z,16.33
2019-05-11T16:11:51.915Z,15.70
2019-05-11T16:16:58.476Z,15.45
2019-05-11T16:22:03.883Z,14.18
2019-05-11T16:27:09.176Z,12.20
2019-05-11T16:32:14.479Z,11.40
2019-05-11T16:37:20.883Z,10.28
2019-05-11T16:42:27.637Z,10.55
2019-05-11T16:47:33.451Z,10.10
2019-05-11T16:52:39.091Z,9.23
2019-05-11T16:57:48.350Z,8.57
2019-05-11T17:02:53.177Z,8.10
2019-05-11T17:07:58.859Z,8.18
2019-05-11T17:13:04.198Z,6.80
2019-05-11T17:18:09.658Z,7.70
2019-05-11T17:23:15.126Z,6.30
2019-05-11T17:28:20.391Z,6.20
2019-05-11T17:33:26.469Z,6.05
2019-05-11T17:38:33.639Z,6.10
2019-05-11T17:43:38.886Z,5.90
2019-05-11T17:48:45.303Z,5.60
2019-05-11T17:53:50.539Z,6.28
2019-05-11T17:58:55.957Z,5.47
2019-05-11T18:04:02.302Z,6.20
2019-05-11T18:09:08.642Z,5.83
2019-05-11T18:14:14.096Z,6.10
2019-05-11T18:19:19.842Z,6.00
2019-05-11T18:24:25.185Z,6.50
2019-05-11T18:29:30.802Z,7.00
2019-05-11T18:34:37.710Z,6.23
2019-05-11T18:39:43.067Z,6.20
2019-05-11T18:44:48.376Z,6.83
2019-05-11T18:49:54.648Z,6.42
2019-05-11T18:55:01.285Z,6.78
2019-05-11T19:00:08.238Z,6.80
2019-05-11T19:05:13.696Z,6.97
2019-05-11T19:10:19.012Z,7.70
2019-05-11T19:15:24.345Z,7.60
2019-05-11T19:20:44.266Z,7.33
2019-05-11T19:25:37.554Z,7.20
2019-05-11T19:30:43.983Z,7.42
2019-05-11T19:35:49.579Z,8.43
2019-05-11T19:40:55.208Z,7.80
2019-05-11T19:46:00.511Z,8.53
2019-05-11T19:51:09.156Z,7.77
2019-05-11T19:56:12.810Z,9.75
2019-05-11T20:01:18.900Z,10.28
2019-05-11T20:06:24.130Z,8.10
2019-05-11T20:11:29.328Z,8.78
2019-05-11T20:16:34.827Z,8.75
2019-05-11T20:21:40.156Z,11.40
2019-05-11T20:26:46.005Z,11.15
2019-05-11T20:31:51.322Z,13.70
2019-05-11T20:36:58.652Z,12.30
2019-05-11T20:42:04.481Z,10.50
2019-05-11T20:47:09.781Z,8.83
2019-05-11T20:52:17.690Z,10.40
2019-05-11T20:57:22.355Z,10.50
2019-05-11T21:02:28.795Z,11.10
2019-05-11T21:07:34.659Z,11.93
2019-05-11T21:12:40.272Z,13.18
2019-05-11T21:17:48.216Z,11.22
2019-05-11T21:22:53.685Z,12.80
2019-05-11T21:27:58.984Z,13.43
2019-05-11T21:33:04.286Z,11.68
2019-05-11T21:38:09.707Z,12.53
2019-05-11T21:43:15.431Z,13.30
2019-05-11T21:48:21.149Z,16.40
2019-05-11T21:53:28.646Z,14.78
2019-05-11T21:58:34.560Z,13.78
2019-05-11T22:03:40.184Z,11.90
2019-05-11T22:08:48.267Z,11.60
2019-05-11T22:13:54.656Z,11.60
2019-05-11T22:19:00.646Z,10.15
2019-05-11T22:24:08.479Z,9.33
2019-05-11T22:29:13.312Z,9.63
2019-05-11T22:34:19.433Z,10.03
2019-05-11T22:39:25.121Z,12.13
2019-05-11T22:44:31.512Z,10.93
2019-05-11T22:49:37.229Z,10.47
2019-05-11T22:54:42.534Z,11.20
2019-05-11T22:59:48.200Z,9.73
2019-05-11T23:04:53.712Z,8.95
2019-05-11T23:10:00.605Z,8.80
2019-05-11T23:15:12.430Z,8.20
2019-05-11T23:20:18.403Z,7.97
2019-05-11T23:25:23.803Z,6.13
2019-05-11T23:30:29.569Z,5.60
2019-05-11T23:35:34.986Z,5.70
2019-05-11T23:40:40.297Z,5.12
2019-05-11T23:45:45.632Z,6.20
2019-05-11T23:50:50.961Z,12.18
2019-05-11T23:55:57.992Z,10.50
